CheckWX is a tool to help pilots better visualize weather data.  It is not intended as a substitute for an official pre-flight weather briefing.

08:38:49 UTC

CYYC TAF
Calgary International Airport
Calgary, Canada
TAF CYYC 260538Z 2606/2706 20005KT P6SM FEW200 BECMG 2608/2610 VRB03KT FM261700 18008KT P6SM SCT140 BKN220 FM262100 20008KT P6SM BKN140 FM270300 26008KT P6SM FEW060 BKN180 RMK NXT FCST BY 260900Z

Jan-26@
06:00 UTC

Jan-26 @ 06:00 UTC

Jan-26@
08:00 UTC

Jan-26 @ 08:00 UTC

TAF CYYC 260538Z 2606/2706 20005KT P6SM FEW200

Expired

Wind
  • 200° at 5 KTS
Cloud Levels
  • Few at 20,000' AGL

Jan-26@
08:00 UTC

Jan-26 @ 08:00 UTC

Jan-26@
17:00 UTC

Jan-26 @ 17:00 UTC

BECMG 2608/2610 VRB03KT

Becoming

Becoming Conditions expected by Sun, Jan 26, 2020 @ 10:00 UTC

Wind
  • Variable at 3 KTS
Cloud Levels
  • Few at 20,000' AGL

Jan-26@
17:00 UTC

Jan-26 @ 17:00 UTC

Jan-26@
21:00 UTC

Jan-26 @ 21:00 UTC

FM261700 18008KT P6SM SCT140 BKN220

From

From Standard forecast or significant change

Wind
  • 180° at 8 KTS
Cloud Levels
  • Scattered at 14,000' AGL
  • Broken at 22,000' AGL

Jan-26@
21:00 UTC

Jan-26 @ 21:00 UTC

Jan-27@
03:00 UTC

Jan-27 @ 03:00 UTC

FM262100 20008KT P6SM BKN140

From

From Standard forecast or significant change

Wind
  • 200° at 8 KTS
Cloud Levels
  • Broken at 14,000' AGL

Jan-27@
03:00 UTC

Jan-27 @ 03:00 UTC

Jan-27@
06:00 UTC

Jan-27 @ 06:00 UTC

FM270300 26008KT P6SM FEW060 BKN180 RMK NXT FCST BY 260900Z

From

From Standard forecast or significant change

Wind
  • 260° at 8 KTS
Cloud Levels
  • Few at 6,000' AGL
  • Broken at 18,000' AGL